Tropical Cyclones
[Index]
Main Index Home Page Stock Weather Photos Extreme Storms Discussion Storm News and Storm Chasing Reports Tropical Cyclones / Hurricanes / Typhoons Weather Data and Links Wild Fires / Bushfires Weather Observation Techniques Weather Picture Catalogue Tornado Pictures and Reports Stock Video Footage and DVDs for sale
Season 2012-2013 Tropical Cyclone JAMALA Track Map
Season 2012-2013 Summaries (Operational Data): [AU] [SIO] [SPAC] [SH]
<<- Previous TC | 2012-2013 Season | Next TC ->>

click for intensity scale information  Lat/long Grid: Show Hide

 Date Labels: Show Hide

Operational Tropical Cyclone Data : JTWC Advisories

Name: JAMALA
Number: 1324

03 May 2013 00:00 UTC to 14 May 2013 18:00 UTC

    date/time    lat    long     hPa   cat  kts
2013-05-03 00    4.8    80.4    1010         15          
2013-05-03 06    4.6    80.2    1010         15          
2013-05-03 12    3.8    79.9    1010         15          
2013-05-03 18    4.5    80.1    1010         15          
2013-05-04 00    4.5    79.7    1010         15          
2013-05-04 06    4.5    79.4    1010         15          
2013-05-04 12    6.7    78.2    1010         15          
2013-05-04 18    6.7    79.9    1010         15          
2013-05-05 00    5.2    84.3    1010         15          
2013-05-05 00    5.2    84.3    1010         15          
2013-05-05 06    5.2    84.4    1010         15          
2013-05-05 06    5.2    84.4    1010         15          
2013-05-05 12    3.9    87.4    1010         15          
2013-05-05 18    4.0    87.2    1010         15          
2013-05-06 00    4.1    86.9    1010         15          
2013-05-06 06    4.3    86.5    1010         15          
2013-05-06 12    4.6    86.0    1004         25          
2013-05-06 18    5.0    85.4    1004         25          
2013-05-07 00    5.6    84.8    1004         25          
2013-05-07 06    5.9    84.5    1004         25          
2013-05-07 12    6.1    84.3    1004         25          
2013-05-07 18    6.0    84.1    1004         25          
2013-05-08 00    5.7    84.3    1000         30          
2013-05-08 06    5.8    84.8    1000         30          
2013-05-08 12    5.9    85.1     996    1    35          
2013-05-08 18    6.2    85.3     993    1    40          
2013-05-09 00    6.6    85.4     993    1    40          
2013-05-09 06    7.0    85.6     993    1    40          
2013-05-09 12    7.7    85.9     993    1    40          
2013-05-09 18    8.0    86.0     993    1    40          
2013-05-10 00    8.3    86.1     993    1    40          
2013-05-10 06    8.6    86.3     993    1    40          
2013-05-10 12    8.9    86.4     996    1    35          
2013-05-10 18    9.4    86.7     996    1    35          
2013-05-11 00   10.0    87.0     996    1    35          
2013-05-11 06   10.6    87.3     996    1    35          
2013-05-11 12   10.6    87.6    1000         30          
2013-05-11 18   10.6    88.3    1004         25          
2013-05-12 00   10.5    88.7    1004         25          
2013-05-12 06   10.5    88.2    1004         25          
2013-05-12 12   10.7    88.1    1004         25          
2013-05-12 18   10.7    87.4    1004         25          
2013-05-13 00   10.4    86.7    1004         25          
2013-05-13 06    9.9    85.8    1004         25          
2013-05-13 12    9.5    84.8    1004         25          
2013-05-13 18    9.2    84.1    1004         25          
2013-05-14 00    8.5    83.6    1004         25          
2013-05-14 06    8.4    82.8    1004         25          
2013-05-14 12    8.4    82.1    1004         25          
2013-05-14 18    8.3    81.3    1004         25          
Winds are 10-min average.

Tropical cyclone tracks developed by Michael Bath using operational warnings and advisories and Google Maps.


[Australian Severe Weather index] [Copyright Notice] [Email Contacts] [Search This Site] [Privacy Policy]
Document: tropical_cyclone_jamala.htm Updated: 2 May 2017